sensor_id;sensor_type;location;lat;lon;timestamp;P1;durP1;ratioP1;P2;durP2;ratioP2
62050;SDS011;48008;51.204;6.766;2022-09-28T00:00:42;8.70;;;2.45;;
62050;SDS011;48008;51.204;6.766;2022-09-28T00:03:11;6.55;;;2.30;;
62050;SDS011;48008;51.204;6.766;2022-09-28T00:05:38;4.97;;;2.22;;
62050;SDS011;48008;51.204;6.766;2022-09-28T00:08:05;7.85;;;2.90;;
62050;SDS011;48008;51.204;6.766;2022-09-28T00:10:32;4.90;;;2.10;;
62050;SDS011;48008;51.204;6.766;2022-09-28T00:12:58;6.15;;;2.40;;
62050;SDS011;48008;51.204;6.766;2022-09-28T00:15:27;6.65;;;2.35;;
62050;SDS011;48008;51.204;6.766;2022-09-28T00:17:54;5.18;;;2.33;;
62050;SDS011;48008;51.204;6.766;2022-09-28T00:20:21;7.07;;;2.42;;
62050;SDS011;48008;51.204;6.766;2022-09-28T00:22:48;8.73;;;2.42;;
62050;SDS011;48008;51.204;6.766;2022-09-28T00:25:14;7.55;;;2.55;;
62050;SDS011;48008;51.204;6.766;2022-09-28T00:27:42;6.80;;;2.42;;
62050;SDS011;48008;51.204;6.766;2022-09-28T00:30:09;5.80;;;2.33;;
62050;SDS011;48008;51.204;6.766;2022-09-28T00:32:35;7.13;;;2.45;;
62050;SDS011;48008;51.204;6.766;2022-09-28T00:35:02;6.18;;;2.47;;
62050;SDS011;48008;51.204;6.766;2022-09-28T00:37:29;9.63;;;2.97;;
62050;SDS011;48008;51.204;6.766;2022-09-28T00:39:55;8.07;;;2.70;;
62050;SDS011;48008;51.204;6.766;2022-09-28T00:42:23;5.80;;;2.72;;
62050;SDS011;48008;51.204;6.766;2022-09-28T00:44:52;8.77;;;3.28;;
62050;SDS011;48008;51.204;6.766;2022-09-28T00:47:52;7.60;;;3.30;;
62050;SDS011;48008;51.204;6.766;2022-09-28T00:52:52;9.55;;;3.97;;
62050;SDS011;48008;51.204;6.766;2022-09-28T00:55:44;12.90;;;4.30;;
62050;SDS011;48008;51.204;6.766;2022-09-28T00:58:20;7.97;;;3.95;;
62050;SDS011;48008;51.204;6.766;2022-09-28T01:00:50;9.05;;;4.45;;
62050;SDS011;48008;51.204;6.766;2022-09-28T01:03:20;10.15;;;5.00;;
62050;SDS011;48008;51.204;6.766;2022-09-28T01:05:47;11.98;;;5.18;;
62050;SDS011;48008;51.204;6.766;2022-09-28T01:08:15;11.65;;;5.50;;
62050;SDS011;48008;51.204;6.766;2022-09-28T01:10:47;11.67;;;5.67;;
62050;SDS011;48008;51.204;6.766;2022-09-28T01:13:15;12.63;;;5.43;;
62050;SDS011;48008;51.204;6.766;2022-09-28T01:15:48;12.60;;;5.55;;
62050;SDS011;48008;51.204;6.766;2022-09-28T01:21:35;11.30;;;5.68;;
62050;SDS011;48008;51.204;6.766;2022-09-28T01:24:20;11.45;;;5.75;;
62050;SDS011;48008;51.204;6.766;2022-09-28T01:27:10;11.55;;;5.80;;
62050;SDS011;48008;51.204;6.766;2022-09-28T01:30:15;10.82;;;6.22;;
62050;SDS011;48008;51.204;6.766;2022-09-28T01:33:04;17.23;;;6.63;;
62050;SDS011;48008;51.204;6.766;2022-09-28T01:35:28;11.80;;;6.20;;
62050;SDS011;48008;51.204;6.766;2022-09-28T01:38:02;14.20;;;6.50;;
62050;SDS011;48008;51.204;6.766;2022-09-28T01:43:03;13.38;;;6.65;;
62050;SDS011;48008;51.204;6.766;2022-09-28T01:45:36;13.07;;;6.85;;
62050;SDS011;48008;51.204;6.766;2022-09-28T01:48:11;13.15;;;6.85;;
62050;SDS011;48008;51.204;6.766;2022-09-28T01:50:45;11.73;;;6.75;;
62050;SDS011;48008;51.204;6.766;2022-09-28T01:53:24;12.30;;;6.67;;
62050;SDS011;48008;51.204;6.766;2022-09-28T01:56:04;12.90;;;7.03;;
62050;SDS011;48008;51.204;6.766;2022-09-28T02:01:37;14.43;;;6.30;;
62050;SDS011;48008;51.204;6.766;2022-09-28T02:04:16;13.05;;;7.22;;
62050;SDS011;48008;51.204;6.766;2022-09-28T02:07:20;15.68;;;7.38;;
62050;SDS011;48008;51.204;6.766;2022-09-28T02:09:56;13.15;;;7.05;;
62050;SDS011;48008;51.204;6.766;2022-09-28T02:12:30;16.48;;;7.05;;
62050;SDS011;48008;51.204;6.766;2022-09-28T02:15:05;14.18;;;6.88;;
62050;SDS011;48008;51.204;6.766;2022-09-28T02:17:46;14.27;;;7.40;;
62050;SDS011;48008;51.204;6.766;2022-09-28T02:20:15;13.23;;;7.18;;
62050;SDS011;48008;51.204;6.766;2022-09-28T02:22:44;13.05;;;6.80;;
62050;SDS011;48008;51.204;6.766;2022-09-28T02:25:20;14.43;;;6.88;;
62050;SDS011;48008;51.204;6.766;2022-09-28T02:27:59;13.15;;;7.25;;
62050;SDS011;48008;51.204;6.766;2022-09-28T02:30:28;12.30;;;7.20;;
62050;SDS011;48008;51.204;6.766;2022-09-28T02:32:58;14.65;;;6.80;;
62050;SDS011;48008;51.204;6.766;2022-09-28T02:35:28;15.38;;;6.93;;
62050;SDS011;48008;51.204;6.766;2022-09-28T02:37:55;15.18;;;6.72;;
62050;SDS011;48008;51.204;6.766;2022-09-28T02:40:24;12.35;;;7.00;;
62050;SDS011;48008;51.204;6.766;2022-09-28T02:43:17;12.63;;;6.93;;
62050;SDS011;48008;51.204;6.766;2022-09-28T02:46:08;14.80;;;6.93;;
62050;SDS011;48008;51.204;6.766;2022-09-28T02:48:53;15.85;;;7.43;;
62050;SDS011;48008;51.204;6.766;2022-09-28T02:51:50;15.20;;;7.43;;
62050;SDS011;48008;51.204;6.766;2022-09-28T02:55:19;14.93;;;7.88;;
62050;SDS011;48008;51.204;6.766;2022-09-28T02:57:48;14.07;;;7.78;;
62050;SDS011;48008;51.204;6.766;2022-09-28T03:00:41;15.90;;;8.60;;
62050;SDS011;48008;51.204;6.766;2022-09-28T03:03:17;17.35;;;8.50;;
62050;SDS011;48008;51.204;6.766;2022-09-28T03:06:02;15.85;;;8.85;;
62050;SDS011;48008;51.204;6.766;2022-09-28T03:08:43;15.85;;;9.80;;
62050;SDS011;48008;51.204;6.766;2022-09-28T03:11:21;16.65;;;9.82;;
62050;SDS011;48008;51.204;6.766;2022-09-28T03:13:55;17.27;;;9.55;;
62050;SDS011;48008;51.204;6.766;2022-09-28T03:16:31;17.85;;;10.20;;
62050;SDS011;48008;51.204;6.766;2022-09-28T03:18:58;22.15;;;10.57;;
62050;SDS011;48008;51.204;6.766;2022-09-28T03:21:25;22.23;;;11.60;;
62050;SDS011;48008;51.204;6.766;2022-09-28T03:23:52;21.92;;;11.48;;
62050;SDS011;48008;51.204;6.766;2022-09-28T03:26:19;22.70;;;11.63;;
62050;SDS011;48008;51.204;6.766;2022-09-28T03:28:46;22.35;;;11.63;;
62050;SDS011;48008;51.204;6.766;2022-09-28T03:31:18;23.25;;;12.18;;
62050;SDS011;48008;51.204;6.766;2022-09-28T03:33:45;19.77;;;11.60;;
62050;SDS011;48008;51.204;6.766;2022-09-28T03:36:12;23.08;;;11.98;;
62050;SDS011;48008;51.204;6.766;2022-09-28T03:38:40;22.30;;;12.93;;
62050;SDS011;48008;51.204;6.766;2022-09-28T03:41:07;28.15;;;13.40;;
62050;SDS011;48008;51.204;6.766;2022-09-28T03:43:36;23.75;;;12.77;;
62050;SDS011;48008;51.204;6.766;2022-09-28T03:46:03;25.63;;;13.95;;
62050;SDS011;48008;51.204;6.766;2022-09-28T03:48:36;26.25;;;13.73;;
62050;SDS011;48008;51.204;6.766;2022-09-28T03:51:04;25.65;;;14.02;;
62050;SDS011;48008;51.204;6.766;2022-09-28T03:53:35;22.10;;;13.20;;
62050;SDS011;48008;51.204;6.766;2022-09-28T03:56:03;24.52;;;13.75;;
62050;SDS011;48008;51.204;6.766;2022-09-28T03:58:32;26.63;;;14.13;;
62050;SDS011;48008;51.204;6.766;2022-09-28T04:01:00;24.27;;;13.93;;
62050;SDS011;48008;51.204;6.766;2022-09-28T04:03:29;26.55;;;14.95;;
62050;SDS011;48008;51.204;6.766;2022-09-28T04:05:56;28.30;;;15.23;;
62050;SDS011;48008;51.204;6.766;2022-09-28T04:08:24;27.00;;;14.95;;
62050;SDS011;48008;51.204;6.766;2022-09-28T04:10:54;29.50;;;17.80;;
62050;SDS011;48008;51.204;6.766;2022-09-28T04:13:23;32.60;;;20.30;;
62050;SDS011;48008;51.204;6.766;2022-09-28T04:15:52;42.92;;;22.75;;
62050;SDS011;48008;51.204;6.766;2022-09-28T04:18:20;43.78;;;24.90;;
62050;SDS011;48008;51.204;6.766;2022-09-28T04:20:58;46.10;;;26.52;;
62050;SDS011;48008;51.204;6.766;2022-09-28T04:23:32;48.67;;;28.63;;
62050;SDS011;48008;51.204;6.766;2022-09-28T04:26:01;49.38;;;27.35;;
62050;SDS011;48008;51.204;6.766;2022-09-28T04:28:29;51.88;;;29.65;;
62050;SDS011;48008;51.204;6.766;2022-09-28T04:31:16;46.55;;;27.30;;
62050;SDS011;48008;51.204;6.766;2022-09-28T04:33:45;45.20;;;25.63;;
62050;SDS011;48008;51.204;6.766;2022-09-28T04:36:12;38.28;;;22.80;;
62050;SDS011;48008;51.204;6.766;2022-09-28T04:38:39;35.10;;;21.75;;
62050;SDS011;48008;51.204;6.766;2022-09-28T04:41:17;36.72;;;22.15;;
62050;SDS011;48008;51.204;6.766;2022-09-28T04:43:46;36.13;;;21.48;;
62050;SDS011;48008;51.204;6.766;2022-09-28T04:46:13;38.05;;;22.35;;
62050;SDS011;48008;51.204;6.766;2022-09-28T04:48:47;37.20;;;21.38;;
62050;SDS011;48008;51.204;6.766;2022-09-28T04:51:34;39.50;;;21.95;;
62050;SDS011;48008;51.204;6.766;2022-09-28T04:54:01;31.13;;;18.60;;
62050;SDS011;48008;51.204;6.766;2022-09-28T04:56:27;34.72;;;17.30;;
62050;SDS011;48008;51.204;6.766;2022-09-28T04:58:54;29.08;;;16.95;;
62050;SDS011;48008;51.204;6.766;2022-09-28T05:01:21;28.52;;;15.63;;
62050;SDS011;48008;51.204;6.766;2022-09-28T05:04:09;28.08;;;17.23;;
62050;SDS011;48008;51.204;6.766;2022-09-28T05:06:56;28.92;;;17.23;;
62050;SDS011;48008;51.204;6.766;2022-09-28T05:09:23;26.10;;;16.52;;
62050;SDS011;48008;51.204;6.766;2022-09-28T05:11:50;28.13;;;16.48;;
62050;SDS011;48008;51.204;6.766;2022-09-28T05:14:21;30.40;;;16.48;;
62050;SDS011;48008;51.204;6.766;2022-09-28T05:16:47;27.08;;;15.80;;
62050;SDS011;48008;51.204;6.766;2022-09-28T05:19:34;30.73;;;15.25;;
62050;SDS011;48008;51.204;6.766;2022-09-28T05:22:02;26.52;;;15.10;;
62050;SDS011;48008;51.204;6.766;2022-09-28T05:24:36;26.17;;;14.57;;
62050;SDS011;48008;51.204;6.766;2022-09-28T05:27:03;28.40;;;15.65;;
62050;SDS011;48008;51.204;6.766;2022-09-28T05:29:30;31.35;;;14.27;;
62050;SDS011;48008;51.204;6.766;2022-09-28T05:32:17;24.00;;;13.35;;
62050;SDS011;48008;51.204;6.766;2022-09-28T05:35:04;24.08;;;14.02;;
62050;SDS011;48008;51.204;6.766;2022-09-28T05:37:39;26.13;;;12.57;;
62050;SDS011;48008;51.204;6.766;2022-09-28T05:40:06;26.65;;;13.70;;
62050;SDS011;48008;51.204;6.766;2022-09-28T05:42:33;25.27;;;13.35;;
62050;SDS011;48008;51.204;6.766;2022-09-28T05:45:00;22.98;;;13.30;;
62050;SDS011;48008;51.204;6.766;2022-09-28T05:47:28;24.88;;;13.35;;
62050;SDS011;48008;51.204;6.766;2022-09-28T05:49:55;22.45;;;13.57;;
62050;SDS011;48008;51.204;6.766;2022-09-28T05:52:22;24.30;;;12.20;;
62050;SDS011;48008;51.204;6.766;2022-09-28T05:54:48;28.73;;;13.05;;
62050;SDS011;48008;51.204;6.766;2022-09-28T05:57:15;23.27;;;12.68;;
62050;SDS011;48008;51.204;6.766;2022-09-28T05:59:42;21.50;;;12.80;;
62050;SDS011;48008;51.204;6.766;2022-09-28T06:02:09;22.33;;;12.32;;
62050;SDS011;48008;51.204;6.766;2022-09-28T06:04:36;19.35;;;10.90;;
62050;SDS011;48008;51.204;6.766;2022-09-28T06:07:02;21.48;;;11.90;;
62050;SDS011;48008;51.204;6.766;2022-09-28T06:09:29;19.42;;;11.30;;
62050;SDS011;48008;51.204;6.766;2022-09-28T06:12:16;21.73;;;10.18;;
62050;SDS011;48008;51.204;6.766;2022-09-28T06:14:46;21.05;;;10.88;;
62050;SDS011;48008;51.204;6.766;2022-09-28T06:17:14;17.85;;;11.05;;
62050;SDS011;48008;51.204;6.766;2022-09-28T06:19:45;21.95;;;10.63;;
62050;SDS011;48008;51.204;6.766;2022-09-28T06:22:23;19.60;;;9.82;;
62050;SDS011;48008;51.204;6.766;2022-09-28T06:25:07;16.95;;;9.82;;
62050;SDS011;48008;51.204;6.766;2022-09-28T06:27:35;20.40;;;9.77;;
62050;SDS011;48008;51.204;6.766;2022-09-28T06:30:02;19.38;;;10.65;;
62050;SDS011;48008;51.204;6.766;2022-09-28T06:32:29;20.23;;;10.05;;
62050;SDS011;48008;51.204;6.766;2022-09-28T06:34:56;20.25;;;10.65;;
62050;SDS011;48008;51.204;6.766;2022-09-28T06:37:24;21.08;;;10.15;;
62050;SDS011;48008;51.204;6.766;2022-09-28T06:39:53;19.05;;;9.50;;
62050;SDS011;48008;51.204;6.766;2022-09-28T06:42:20;19.92;;;10.20;;
62050;SDS011;48008;51.204;6.766;2022-09-28T06:45:07;18.20;;;9.55;;
62050;SDS011;48008;51.204;6.766;2022-09-28T06:47:42;23.02;;;9.38;;
62050;SDS011;48008;51.204;6.766;2022-09-28T06:50:15;18.80;;;9.73;;
62050;SDS011;48008;51.204;6.766;2022-09-28T06:53:02;18.00;;;10.02;;
62050;SDS011;48008;51.204;6.766;2022-09-28T06:55:49;16.90;;;9.10;;
62050;SDS011;48008;51.204;6.766;2022-09-28T06:58:17;22.13;;;9.80;;
62050;SDS011;48008;51.204;6.766;2022-09-28T07:00:46;15.48;;;8.98;;
62050;SDS011;48008;51.204;6.766;2022-09-28T07:03:16;17.05;;;10.00;;
62050;SDS011;48008;51.204;6.766;2022-09-28T07:05:57;18.70;;;10.25;;
62050;SDS011;48008;51.204;6.766;2022-09-28T07:08:38;24.40;;;10.10;;
62050;SDS011;48008;51.204;6.766;2022-09-28T07:11:24;17.92;;;8.60;;
62050;SDS011;48008;51.204;6.766;2022-09-28T07:14:12;18.10;;;9.40;;
62050;SDS011;48008;51.204;6.766;2022-09-28T07:16:47;19.80;;;8.48;;
62050;SDS011;48008;51.204;6.766;2022-09-28T07:19:33;15.65;;;8.60;;
62050;SDS011;48008;51.204;6.766;2022-09-28T07:22:01;15.75;;;8.23;;
62050;SDS011;48008;51.204;6.766;2022-09-28T07:24:30;19.30;;;8.98;;
62050;SDS011;48008;51.204;6.766;2022-09-28T07:27:18;14.77;;;8.13;;
62050;SDS011;48008;51.204;6.766;2022-09-28T07:29:56;21.27;;;8.32;;
62050;SDS011;48008;51.204;6.766;2022-09-28T07:32:39;18.88;;;9.05;;
62050;SDS011;48008;51.204;6.766;2022-09-28T07:35:20;20.08;;;10.32;;
62050;SDS011;48008;51.204;6.766;2022-09-28T07:37:57;18.05;;;9.35;;
62050;SDS011;48008;51.204;6.766;2022-09-28T07:40:26;17.83;;;9.38;;
62050;SDS011;48008;51.204;6.766;2022-09-28T07:43:13;20.33;;;10.50;;
62050;SDS011;48008;51.204;6.766;2022-09-28T07:45:49;18.77;;;10.05;;
62050;SDS011;48008;51.204;6.766;2022-09-28T07:48:19;22.05;;;9.00;;
62050;SDS011;48008;51.204;6.766;2022-09-28T07:51:06;20.40;;;8.98;;
62050;SDS011;48008;51.204;6.766;2022-09-28T07:53:39;19.60;;;8.07;;
62050;SDS011;48008;51.204;6.766;2022-09-28T07:56:14;21.33;;;8.25;;
62050;SDS011;48008;51.204;6.766;2022-09-28T07:58:53;16.27;;;8.75;;
62050;SDS011;48008;51.204;6.766;2022-09-28T08:01:39;15.88;;;8.00;;
62050;SDS011;48008;51.204;6.766;2022-09-28T08:04:08;15.77;;;7.22;;
62050;SDS011;48008;51.204;6.766;2022-09-28T08:06:36;13.10;;;7.25;;
62050;SDS011;48008;51.204;6.766;2022-09-28T08:09:04;12.80;;;7.20;;
62050;SDS011;48008;51.204;6.766;2022-09-28T08:11:51;18.20;;;7.70;;
62050;SDS011;48008;51.204;6.766;2022-09-28T08:14:33;18.17;;;7.82;;
62050;SDS011;48008;51.204;6.766;2022-09-28T08:17:19;16.50;;;7.88;;
62050;SDS011;48008;51.204;6.766;2022-09-28T08:19:49;15.65;;;7.38;;
62050;SDS011;48008;51.204;6.766;2022-09-28T08:22:36;14.27;;;7.22;;
62050;SDS011;48008;51.204;6.766;2022-09-28T08:25:04;13.55;;;7.10;;
62050;SDS011;48008;51.204;6.766;2022-09-28T08:27:32;17.42;;;7.70;;
62050;SDS011;48008;51.204;6.766;2022-09-28T08:29:59;14.05;;;7.43;;
62050;SDS011;48008;51.204;6.766;2022-09-28T08:32:38;15.40;;;7.20;;
62050;SDS011;48008;51.204;6.766;2022-09-28T08:35:24;16.00;;;7.35;;
62050;SDS011;48008;51.204;6.766;2022-09-28T08:38:12;15.30;;;7.63;;
62050;SDS011;48008;51.204;6.766;2022-09-28T08:41:05;15.50;;;7.72;;
62050;SDS011;48008;51.204;6.766;2022-09-28T08:44:14;18.80;;;7.72;;
62050;SDS011;48008;51.204;6.766;2022-09-28T08:47:12;16.70;;;7.75;;
62050;SDS011;48008;51.204;6.766;2022-09-28T08:50:25;17.38;;;7.25;;
62050;SDS011;48008;51.204;6.766;2022-09-28T08:53:01;17.30;;;7.10;;
62050;SDS011;48008;51.204;6.766;2022-09-28T08:56:01;14.27;;;7.40;;
62050;SDS011;48008;51.204;6.766;2022-09-28T08:58:32;16.90;;;7.53;;
62050;SDS011;48008;51.204;6.766;2022-09-28T09:03:34;17.38;;;6.88;;
62050;SDS011;48008;51.204;6.766;2022-09-28T09:09:45;13.30;;;6.60;;
62050;SDS011;48008;51.204;6.766;2022-09-28T09:15:35;19.40;;;7.60;;
62050;SDS011;48008;51.204;6.766;2022-09-28T09:21:30;17.23;;;6.70;;
62050;SDS011;48008;51.204;6.766;2022-09-28T09:27:06;15.48;;;5.78;;
62050;SDS011;48008;51.204;6.766;2022-09-28T09:30:16;12.82;;;4.22;;
62050;SDS011;48008;51.204;6.766;2022-09-28T09:33:00;10.77;;;3.58;;
62050;SDS011;48008;51.204;6.766;2022-09-28T09:36:11;14.55;;;3.38;;
62050;SDS011;48008;51.204;6.766;2022-09-28T09:39:17;10.75;;;3.20;;
62050;SDS011;48008;51.204;6.766;2022-09-28T09:45:42;8.45;;;3.03;;
62050;SDS011;48008;51.204;6.766;2022-09-28T09:48:44;8.18;;;3.00;;
62050;SDS011;48008;51.204;6.766;2022-09-28T09:51:40;10.63;;;3.42;;
62050;SDS011;48008;51.204;6.766;2022-09-28T09:54:14;8.23;;;3.08;;
62050;SDS011;48008;51.204;6.766;2022-09-28T09:56:48;8.23;;;2.60;;
62050;SDS011;48008;51.204;6.766;2022-09-28T09:59:40;7.70;;;2.80;;
62050;SDS011;48008;51.204;6.766;2022-09-28T10:02:22;9.13;;;2.88;;
62050;SDS011;48008;51.204;6.766;2022-09-28T10:05:01;8.98;;;2.90;;
62050;SDS011;48008;51.204;6.766;2022-09-28T10:07:46;8.13;;;2.90;;
62050;SDS011;48008;51.204;6.766;2022-09-28T10:10:24;10.10;;;3.00;;
62050;SDS011;48008;51.204;6.766;2022-09-28T10:13:03;13.43;;;3.33;;
62050;SDS011;48008;51.204;6.766;2022-09-28T10:15:31;28.42;;;2.50;;
62050;SDS011;48008;51.204;6.766;2022-09-28T10:21:00;12.82;;;2.90;;
62050;SDS011;48008;51.204;6.766;2022-09-28T10:23:39;12.43;;;3.50;;
62050;SDS011;48008;51.204;6.766;2022-09-28T10:26:09;11.98;;;2.80;;
62050;SDS011;48008;51.204;6.766;2022-09-28T10:28:46;7.60;;;2.40;;
62050;SDS011;48008;51.204;6.766;2022-09-28T10:31:52;5.97;;;2.40;;
62050;SDS011;48008;51.204;6.766;2022-09-28T10:34:24;8.35;;;2.63;;
62050;SDS011;48008;51.204;6.766;2022-09-28T10:36:56;7.18;;;2.50;;
62050;SDS011;48008;51.204;6.766;2022-09-28T10:39:33;10.38;;;2.75;;
62050;SDS011;48008;51.204;6.766;2022-09-28T10:42:05;11.68;;;2.97;;
62050;SDS011;48008;51.204;6.766;2022-09-28T10:47:33;8.23;;;3.13;;
62050;SDS011;48008;51.204;6.766;2022-09-28T10:50:03;8.85;;;2.85;;
62050;SDS011;48008;51.204;6.766;2022-09-28T10:52:45;12.15;;;2.85;;
62050;SDS011;48008;51.204;6.766;2022-09-28T10:55:32;9.65;;;3.90;;
62050;SDS011;48008;51.204;6.766;2022-09-28T11:03:30;10.48;;;2.85;;
62050;SDS011;48008;51.204;6.766;2022-09-28T11:06:04;9.57;;;3.00;;
62050;SDS011;48008;51.204;6.766;2022-09-28T11:08:36;9.40;;;3.30;;
62050;SDS011;48008;51.204;6.766;2022-09-28T11:11:08;10.13;;;3.60;;
62050;SDS011;48008;51.204;6.766;2022-09-28T11:16:28;10.82;;;3.47;;
62050;SDS011;48008;51.204;6.766;2022-09-28T11:19:23;10.45;;;3.50;;
62050;SDS011;48008;51.204;6.766;2022-09-28T11:21:47;8.70;;;2.70;;
62050;SDS011;48008;51.204;6.766;2022-09-28T11:24:17;8.50;;;3.33;;
62050;SDS011;48008;51.204;6.766;2022-09-28T11:26:48;8.18;;;3.20;;
62050;SDS011;48008;51.204;6.766;2022-09-28T11:29:37;8.40;;;3.22;;
62050;SDS011;48008;51.204;6.766;2022-09-28T11:32:29;8.40;;;3.30;;
62050;SDS011;48008;51.204;6.766;2022-09-28T11:35:35;10.90;;;3.58;;
62050;SDS011;48008;51.204;6.766;2022-09-28T11:41:47;11.82;;;3.83;;
62050;SDS011;48008;51.204;6.766;2022-09-28T11:44:43;8.63;;;3.30;;
62050;SDS011;48008;51.204;6.766;2022-09-28T11:53:23;10.93;;;3.35;;
62050;SDS011;48008;51.204;6.766;2022-09-28T11:56:15;7.60;;;3.03;;
62050;SDS011;48008;51.204;6.766;2022-09-28T11:58:54;9.77;;;3.10;;
62050;SDS011;48008;51.204;6.766;2022-09-28T12:01:37;11.27;;;3.13;;
62050;SDS011;48008;51.204;6.766;2022-09-28T12:04:23;14.02;;;3.30;;
62050;SDS011;48008;51.204;6.766;2022-09-28T12:07:00;8.77;;;2.78;;
62050;SDS011;48008;51.204;6.766;2022-09-28T12:09:35;8.35;;;2.90;;
62050;SDS011;48008;51.204;6.766;2022-09-28T12:12:15;7.60;;;2.30;;
62050;SDS011;48008;51.204;6.766;2022-09-28T12:14:54;7.53;;;2.70;;
62050;SDS011;48008;51.204;6.766;2022-09-28T12:17:27;9.00;;;2.80;;
62050;SDS011;48008;51.204;6.766;2022-09-28T12:20:18;12.13;;;2.78;;
62050;SDS011;48008;51.204;6.766;2022-09-28T12:22:53;9.50;;;2.38;;
62050;SDS011;48008;51.204;6.766;2022-09-28T12:25:38;9.15;;;2.38;;
62050;SDS011;48008;51.204;6.766;2022-09-28T12:28:15;6.40;;;2.40;;
62050;SDS011;48008;51.204;6.766;2022-09-28T12:30:47;8.55;;;2.28;;
62050;SDS011;48008;51.204;6.766;2022-09-28T12:33:17;7.53;;;2.58;;
62050;SDS011;48008;51.204;6.766;2022-09-28T12:41:52;8.68;;;2.50;;
62050;SDS011;48008;51.204;6.766;2022-09-28T12:44:55;8.10;;;2.50;;
62050;SDS011;48008;51.204;6.766;2022-09-28T12:48:09;10.23;;;2.42;;
62050;SDS011;48008;51.204;6.766;2022-09-28T12:50:36;5.90;;;2.67;;
62050;SDS011;48008;51.204;6.766;2022-09-28T12:56:44;5.97;;;2.20;;
62050;SDS011;48008;51.204;6.766;2022-09-28T12:59:31;10.00;;;2.28;;
62050;SDS011;48008;51.204;6.766;2022-09-28T13:02:24;6.65;;;2.13;;
62050;SDS011;48008;51.204;6.766;2022-09-28T13:08:14;6.15;;;2.10;;
62050;SDS011;48008;51.204;6.766;2022-09-28T13:11:14;6.80;;;2.10;;
62050;SDS011;48008;51.204;6.766;2022-09-28T13:13:59;6.28;;;2.10;;
62050;SDS011;48008;51.204;6.766;2022-09-28T13:16:59;5.63;;;1.85;;
62050;SDS011;48008;51.204;6.766;2022-09-28T13:22:56;5.68;;;1.92;;
62050;SDS011;48008;51.204;6.766;2022-09-28T13:25:35;5.32;;;1.90;;
62050;SDS011;48008;51.204;6.766;2022-09-28T13:28:08;7.03;;;2.17;;
62050;SDS011;48008;51.204;6.766;2022-09-28T13:30:41;6.32;;;1.85;;
62050;SDS011;48008;51.204;6.766;2022-09-28T13:33:15;6.75;;;2.10;;
62050;SDS011;48008;51.204;6.766;2022-09-28T13:35:46;8.77;;;2.17;;
62050;SDS011;48008;51.204;6.766;2022-09-28T13:43:44;9.60;;;2.10;;
62050;SDS011;48008;51.204;6.766;2022-09-28T13:49:22;6.93;;;1.70;;
62050;SDS011;48008;51.204;6.766;2022-09-28T13:55:02;7.03;;;2.10;;
62050;SDS011;48008;51.204;6.766;2022-09-28T13:57:51;5.88;;;1.70;;
62050;SDS011;48008;51.204;6.766;2022-09-28T14:00:48;7.78;;;1.60;;
62050;SDS011;48008;51.204;6.766;2022-09-28T14:03:23;8.60;;;1.75;;
62050;SDS011;48008;51.204;6.766;2022-09-28T14:06:24;6.32;;;1.70;;
62050;SDS011;48008;51.204;6.766;2022-09-28T14:11:57;7.57;;;1.60;;
62050;SDS011;48008;51.204;6.766;2022-09-28T14:14:58;8.13;;;1.88;;
62050;SDS011;48008;51.204;6.766;2022-09-28T14:19:58;8.60;;;2.30;;
62050;SDS011;48008;51.204;6.766;2022-09-28T14:22:32;11.15;;;2.25;;
62050;SDS011;48008;51.204;6.766;2022-09-28T14:25:22;5.75;;;2.10;;
62050;SDS011;48008;51.204;6.766;2022-09-28T14:30:55;6.40;;;1.90;;
62050;SDS011;48008;51.204;6.766;2022-09-28T14:33:27;9.73;;;2.00;;
62050;SDS011;48008;51.204;6.766;2022-09-28T14:35:58;9.18;;;1.83;;
62050;SDS011;48008;51.204;6.766;2022-09-28T14:41:25;7.80;;;1.85;;
62050;SDS011;48008;51.204;6.766;2022-09-28T14:43:58;6.55;;;1.70;;
62050;SDS011;48008;51.204;6.766;2022-09-28T14:46:32;7.82;;;1.85;;
62050;SDS011;48008;51.204;6.766;2022-09-28T14:52:09;3.85;;;1.55;;
62050;SDS011;48008;51.204;6.766;2022-09-28T14:54:41;5.32;;;1.65;;
62050;SDS011;48008;51.204;6.766;2022-09-28T14:57:15;7.60;;;2.00;;
62050;SDS011;48008;51.204;6.766;2022-09-28T14:59:44;6.30;;;1.38;;
62050;SDS011;48008;51.204;6.766;2022-09-28T15:02:16;6.18;;;1.50;;
62050;SDS011;48008;51.204;6.766;2022-09-28T15:04:48;5.45;;;1.50;;
62050;SDS011;48008;51.204;6.766;2022-09-28T15:07:18;4.13;;;1.30;;
62050;SDS011;48008;51.204;6.766;2022-09-28T15:09:47;5.57;;;1.40;;
62050;SDS011;48008;51.204;6.766;2022-09-28T15:12:17;2.88;;;1.10;;
62050;SDS011;48008;51.204;6.766;2022-09-28T15:14:51;4.25;;;1.33;;
62050;SDS011;48008;51.204;6.766;2022-09-28T15:17:25;5.57;;;1.35;;
62050;SDS011;48008;51.204;6.766;2022-09-28T15:22:33;14.18;;;4.55;;
62050;SDS011;48008;51.204;6.766;2022-09-28T15:25:00;7.95;;;1.52;;
62050;SDS011;48008;51.204;6.766;2022-09-28T15:27:36;5.82;;;1.70;;
62050;SDS011;48008;51.204;6.766;2022-09-28T15:30:20;4.70;;;1.50;;
62050;SDS011;48008;51.204;6.766;2022-09-28T15:32:49;6.53;;;1.60;;
62050;SDS011;48008;51.204;6.766;2022-09-28T15:35:21;7.28;;;1.98;;
62050;SDS011;48008;51.204;6.766;2022-09-28T15:37:51;7.32;;;1.90;;
62050;SDS011;48008;51.204;6.766;2022-09-28T15:40:26;7.85;;;2.00;;
62050;SDS011;48008;51.204;6.766;2022-09-28T15:42:57;7.22;;;2.50;;
62050;SDS011;48008;51.204;6.766;2022-09-28T15:45:29;9.93;;;2.33;;
62050;SDS011;48008;51.204;6.766;2022-09-28T15:48:32;5.57;;;2.00;;
62050;SDS011;48008;51.204;6.766;2022-09-28T15:51:03;8.82;;;1.80;;
62050;SDS011;48008;51.204;6.766;2022-09-28T15:56:31;7.43;;;2.22;;
62050;SDS011;48008;51.204;6.766;2022-09-28T15:59:19;6.40;;;1.90;;
62050;SDS011;48008;51.204;6.766;2022-09-28T16:02:00;5.20;;;1.85;;
62050;SDS011;48008;51.204;6.766;2022-09-28T16:04:36;6.40;;;1.92;;
62050;SDS011;48008;51.204;6.766;2022-09-28T16:09:53;5.47;;;2.13;;
62050;SDS011;48008;51.204;6.766;2022-09-28T16:12:28;6.63;;;2.30;;
62050;SDS011;48008;51.204;6.766;2022-09-28T16:15:36;7.13;;;2.30;;
62050;SDS011;48008;51.204;6.766;2022-09-28T16:18:01;8.80;;;2.60;;
62050;SDS011;48008;51.204;6.766;2022-09-28T16:20:31;8.02;;;2.90;;
62050;SDS011;48008;51.204;6.766;2022-09-28T16:23:07;7.70;;;2.83;;
62050;SDS011;48008;51.204;6.766;2022-09-28T16:25:42;6.85;;;2.97;;
62050;SDS011;48008;51.204;6.766;2022-09-28T16:28:54;9.73;;;3.50;;
62050;SDS011;48008;51.204;6.766;2022-09-28T16:33:55;8.93;;;3.30;;
62050;SDS011;48008;51.204;6.766;2022-09-28T16:36:26;9.38;;;3.30;;
62050;SDS011;48008;51.204;6.766;2022-09-28T16:41:24;7.60;;;3.10;;
62050;SDS011;48008;51.204;6.766;2022-09-28T16:43:56;10.63;;;3.40;;
62050;SDS011;48008;51.204;6.766;2022-09-28T16:46:28;8.70;;;3.37;;
62050;SDS011;48008;51.204;6.766;2022-09-28T16:48:59;8.57;;;3.50;;
62050;SDS011;48008;51.204;6.766;2022-09-28T16:51:28;9.38;;;3.10;;
62050;SDS011;48008;51.204;6.766;2022-09-28T16:53:57;9.73;;;3.13;;
62050;SDS011;48008;51.204;6.766;2022-09-28T16:56:56;6.72;;;2.55;;
62050;SDS011;48008;51.204;6.766;2022-09-28T16:59:23;8.23;;;2.58;;
62050;SDS011;48008;51.204;6.766;2022-09-28T17:01:50;8.38;;;2.20;;
62050;SDS011;48008;51.204;6.766;2022-09-28T17:04:16;6.22;;;2.55;;
62050;SDS011;48008;51.204;6.766;2022-09-28T17:06:44;8.30;;;3.45;;
62050;SDS011;48008;51.204;6.766;2022-09-28T17:09:10;10.85;;;3.78;;
62050;SDS011;48008;51.204;6.766;2022-09-28T17:11:37;8.45;;;3.85;;
62050;SDS011;48008;51.204;6.766;2022-09-28T17:14:05;10.35;;;5.38;;
62050;SDS011;48008;51.204;6.766;2022-09-28T17:16:31;11.60;;;7.57;;
62050;SDS011;48008;51.204;6.766;2022-09-28T17:19:20;10.65;;;6.45;;